Time;durP1;ratioP1;P1;durP2;ratioP2;P2;SDS_P1;SDS_P2;PMS_P1;PMS_P2;Temp;Humidity;BMP_temperature;BMP_pressure;BME280_temperature;BME280_humidity;BME280_pressure;Samples;Min_cycle;Max_cycle;Signal;HPM_P1;HPM_P2
2023/06/28 00:05:04;;;;;;;8.18;4.65;;;;;;;24.23;100.00;100636.28;20992315;28;20048;-76
2023/06/28 00:15:27;;;;;;;8.35;4.90;;;;;;;24.23;100.00;100636.28;20964833;28;20040;-76
2023/06/28 00:25:52;;;;;;;9.95;5.35;;;;;;;24.18;100.00;100632.88;20982851;28;20143;-76
2023/06/28 00:36:14;;;;;;;9.80;5.13;;;;;;;24.10;100.00;100624.22;20996432;28;20042;-76
2023/06/28 00:46:38;;;;;;;10.80;5.65;;;;;;;24.04;100.00;100619.09;20977788;28;20059;-76
2023/06/28 00:57:02;;;;;;;8.35;5.15;;;;;;;23.95;100.00;100612.28;20973239;28;20057;-76
2023/06/28 01:07:28;;;;;;;9.00;4.97;;;;;;;23.93;100.00;100608.75;20955013;28;20126;-76
2023/06/28 01:17:51;;;;;;;8.45;4.10;;;;;;;23.84;100.00;100604.63;20962650;28;20617;-78
2023/06/28 01:28:16;;;;;;;8.45;4.68;;;;;;;23.81;100.00;100617.38;20978024;28;20052;-77
2023/06/28 01:38:41;;;;;;;6.47;4.35;;;;;;;23.76;100.00;100620.22;20978364;28;20048;-77
2023/06/28 01:49:08;;;;;;;9.95;4.38;;;;;;;23.40;100.00;100621.69;20997416;28;20054;-77
2023/06/28 01:59:32;;;;;;;11.35;4.97;;;;;;;23.45;100.00;100623.25;20975811;28;20440;-77
2023/06/28 02:09:57;;;;;;;8.30;4.93;;;;;;;23.35;100.00;100646.13;20958880;28;20143;-77
2023/06/28 02:20:20;;;;;;;9.27;5.05;;;;;;;23.21;100.00;100653.84;20955109;28;20055;-77
2023/06/28 02:30:44;;;;;;;9.98;5.30;;;;;;;23.18;100.00;100661.16;20975249;28;20052;-76
2023/06/28 02:41:07;;;;;;;11.38;4.60;;;;;;;23.15;100.00;100666.69;20972612;28;20546;-77
2023/06/28 02:51:31;;;;;;;7.60;5.05;;;;;;;23.24;100.00;100663.63;20972357;28;20140;-77
2023/06/28 03:01:56;;;;;;;11.07;5.18;;;;;;;23.25;100.00;100678.84;20958664;28;20118;-76
2023/06/28 03:12:21;;;;;;;6.35;4.07;;;;;;;23.38;100.00;100670.25;20907888;28;20053;-76
2023/06/28 03:22:45;;;;;;;8.82;3.80;;;;;;;23.50;100.00;100662.66;21030356;28;20160;-77
2023/06/28 03:33:09;;;;;;;7.47;4.18;;;;;;;23.70;100.00;100663.63;21015902;28;20059;-77
2023/06/28 03:43:32;;;;;;;7.45;3.83;;;;;;;24.07;100.00;100678.31;21033728;28;20053;-77
2023/06/28 03:53:56;;;;;;;5.47;3.58;;;;;;;24.50;100.00;100675.56;20969246;28;20139;-77
2023/06/28 04:04:19;;;;;;;9.52;3.95;;;;;;;24.98;100.00;100669.00;20976298;28;20431;-76
2023/06/28 04:14:43;;;;;;;7.55;3.60;;;;;;;25.40;100.00;100675.09;20984503;28;20044;-77
2023/06/28 04:25:06;;;;;;;8.43;3.15;;;;;;;25.95;100.00;100675.19;20985913;28;20060;-77
2023/06/28 04:35:34;;;;;;;5.93;3.10;;;;;;;26.57;100.00;100674.78;20951384;28;20045;-77
2023/06/28 04:45:57;;;;;;;5.28;3.05;;;;;;;27.14;100.00;100672.66;20999302;28;20044;-78
2023/06/28 04:56:21;;;;;;;6.13;3.00;;;;;;;27.64;100.00;100677.13;20969665;28;20072;-78
2023/06/28 05:06:44;;;;;;;4.75;2.67;;;;;;;28.18;100.00;100678.53;20984609;28;20052;-77
2023/06/28 05:17:08;;;;;;;8.00;2.80;;;;;;;28.81;94.87;100682.00;21026803;28;20051;-78
2023/06/28 05:27:30;;;;;;;6.38;2.83;;;;;;;29.46;88.11;100673.44;21051358;28;20040;-78
2023/06/28 05:37:54;;;;;;;5.25;2.92;;;;;;;30.07;76.22;100684.78;20990145;28;20059;-78
2023/06/28 05:48:17;;;;;;;6.07;2.78;;;;;;;30.63;67.84;100687.41;20968114;28;20717;-78
2023/06/28 05:58:41;;;;;;;5.18;2.58;;;;;;;31.06;55.81;100682.59;20982917;28;20058;-77
2023/06/28 06:09:04;;;;;;;5.15;2.80;;;;;;;31.75;51.29;100681.25;20949020;28;20048;-78
2023/06/28 06:19:28;;;;;;;3.45;2.60;;;;;;;32.60;46.86;100682.97;20979971;28;20404;-78
2023/06/28 06:29:51;;;;;;;6.80;2.50;;;;;;;33.39;42.68;100695.88;20969324;28;20056;-77
2023/06/28 06:40:17;;;;;;;4.80;2.63;;;;;;;34.03;39.68;100677.78;20883581;28;20144;-77
2023/06/28 06:50:39;;;;;;;;;;;;;;;34.21;37.92;100692.72;20981992;28;20049;-77
2023/06/28 07:01:04;;;;;;;6.22;3.00;;;;;;;34.84;37.60;100691.00;21007998;28;19931;-78
2023/06/28 07:11:27;;;;;;;4.50;2.72;;;;;;;35.37;36.86;100707.41;21006296;28;20097;-78
2023/06/28 07:21:51;;;;;;;4.82;2.30;;;;;;;35.36;35.23;100705.66;21072932;28;20066;-78
2023/06/28 07:32:14;;;;;;;4.15;2.78;;;;;;;35.52;35.84;100708.75;21009223;28;20044;-79
2023/06/28 07:42:40;;;;;;;3.33;2.15;;;;;;;35.53;34.79;100714.13;21072749;28;20101;-78
2023/06/28 07:53:02;;;;;;;5.43;2.38;;;;;;;35.77;35.49;100723.94;21061907;28;20056;-78
2023/06/28 08:03:26;;;;;;;3.90;2.78;;;;;;;35.95;36.04;100717.66;21032956;28;20090;-78
2023/06/28 08:13:50;;;;;;;5.07;2.30;;;;;;;35.55;36.17;100719.47;21065898;28;20095;-78
2023/06/28 08:24:14;;;;;;;7.72;2.25;;;;;;;35.71;36.44;100725.34;21072346;28;20036;-78
2023/06/28 08:34:37;;;;;;;4.88;2.33;;;;;;;35.76;36.48;100738.69;21050011;28;20113;-78
2023/06/28 08:45:03;;;;;;;5.40;2.20;;;;;;;35.82;35.61;100730.75;21047268;28;20180;-78
2023/06/28 08:55:26;;;;;;;4.32;2.60;;;;;;;35.95;36.28;100738.75;20957808;28;20044;-79
2023/06/28 09:05:52;;;;;;;4.05;2.47;;;;;;;36.24;36.37;100739.72;20976866;28;20100;-78
2023/06/28 09:16:16;;;;;;;5.72;2.45;;;;;;;36.32;34.65;100748.16;21055737;28;20655;-77
2023/06/28 09:26:43;;;;;;;7.57;2.75;;;;;;;36.72;33.94;100753.56;20962622;28;20045;-78
2023/06/28 09:37:07;;;;;;;8.25;2.75;;;;;;;37.10;33.34;100744.41;20980781;28;20040;-79
2023/06/28 09:47:33;;;;;;;4.35;2.30;;;;;;;37.56;31.69;100745.50;20994728;28;20049;-78
2023/06/28 09:57:57;;;;;;;7.70;2.17;;;;;;;37.68;31.49;100738.81;20980821;28;20044;-78
2023/06/28 10:08:22;;;;;;;4.80;2.60;;;;;;;37.79;31.02;100737.75;20994345;28;20501;-79
2023/06/28 10:18:45;;;;;;;5.38;3.70;;;;;;;37.31;30.92;100743.41;20969080;28;20508;-78
2023/06/28 10:29:10;;;;;;;5.07;2.30;;;;;;;36.89;29.72;100738.19;20963789;28;20060;-80
2023/06/28 10:39:34;;;;;;;3.88;2.58;;;;;;;37.18;29.63;100731.81;20976236;28;20101;-80
2023/06/28 10:49:41;;;;;;;6.73;2.50;;;;;;;37.56;28.54;100717.94;21010176;28;20471;-78
2023/06/28 11:00:07;;;;;;;4.80;2.65;;;;;;;38.09;28.49;100739.38;20989089;28;20288;-80
2023/06/28 11:10:40;;;;;;;7.68;3.22;;;;;;;38.54;28.16;100726.44;20987466;28;20049;-80
2023/06/28 11:21:03;;;;;;;4.40;2.53;;;;;;;38.85;28.04;100739.88;20990421;28;20051;-79
2023/06/28 11:31:39;;;;;;;5.95;2.30;;;;;;;38.17;28.42;100742.22;20986455;28;20044;-79
2023/06/28 11:42:04;;;;;;;6.32;2.67;;;;;;;37.64;28.96;100745.66;20983318;28;20040;-79
2023/06/28 11:52:29;;;;;;;5.35;2.55;;;;;;;37.04;29.54;100750.50;20979468;28;20048;-78
2023/06/28 12:02:53;;;;;;;4.07;2.38;;;;;;;36.58;29.75;100745.72;20970231;28;20055;-79
2023/06/28 12:13:22;;;;;;;4.47;2.33;;;;;;;36.26;30.08;100754.22;20972926;28;20076;-78
2023/06/28 12:23:26;;;;;;;3.47;2.47;;;;;;;36.17;29.69;100749.56;20973132;28;20048;-78
2023/06/28 12:33:41;;;;;;;5.25;2.80;;;;;;;36.49;29.21;100756.72;20987299;28;20055;-78
2023/06/28 12:44:04;;;;;;;;;;;;;;;36.97;29.58;100763.13;20956815;28;20052;-80
2023/06/28 12:54:29;;;;;;;5.53;2.80;;;;;;;37.25;30.58;100763.28;20961309;28;19927;-81
2023/06/28 13:04:52;;;;;;;4.65;2.40;;;;;;;37.58;29.97;100760.03;20976825;28;20048;-81
2023/06/28 13:15:17;;;;;;;4.80;2.65;;;;;;;37.21;29.75;100759.97;20948851;28;20037;-80
2023/06/28 13:25:40;;;;;;;7.45;3.40;;;;;;;36.93;30.29;100736.91;20971164;28;20068;-78
2023/06/28 13:36:08;;;;;;;6.68;3.08;;;;;;;36.49;31.35;100731.97;20955858;28;20069;-78
2023/06/28 13:46:31;;;;;;;8.60;3.08;;;;;;;36.08;30.40;100720.13;20973630;28;20053;-79
2023/06/28 13:56:55;;;;;;;5.55;3.30;;;;;;;35.91;29.50;100713.41;20981782;28;20060;-80
2023/06/28 14:07:18;;;;;;;5.27;2.77;;;;;;;35.94;29.27;100721.41;21017114;28;20059;-80
2023/06/28 14:17:43;;;;;;;4.47;2.70;;;;;;;35.66;30.39;100719.38;20990284;28;20049;-80
2023/06/28 14:28:05;;;;;;;5.10;2.67;;;;;;;36.09;29.69;100712.75;20968798;28;20048;-79
2023/06/28 14:38:29;;;;;;;5.90;2.70;;;;;;;36.01;29.64;100716.22;20922409;28;20098;-80
2023/06/28 14:48:52;;;;;;;3.37;2.30;;;;;;;35.97;28.01;100709.25;20988690;28;20057;-78
2023/06/28 14:59:16;;;;;;;6.30;2.50;;;;;;;35.27;27.95;100712.81;20989522;28;20338;-79
2023/06/28 15:09:38;;;;;;;6.07;2.72;;;;;;;34.96;28.37;100708.25;20983978;28;20051;-80
2023/06/28 15:20:03;;;;;;;3.58;2.50;;;;;;;34.37;29.01;100706.88;20991431;28;20063;-80
2023/06/28 15:30:17;;;;;;;5.43;2.42;;;;;;;33.73;29.24;100710.50;21006638;28;20048;-79
2023/06/28 15:40:42;;;;;;;7.57;3.00;;;;;;;33.20;29.67;100716.53;21044095;28;20048;-80
2023/06/28 15:51:05;;;;;;;7.35;2.92;;;;;;;32.57;30.29;100711.41;20971230;28;20055;-79
2023/06/28 16:01:29;;;;;;;5.35;2.85;;;;;;;31.93;31.03;100715.38;20962722;28;20131;-79
2023/06/28 16:11:51;;;;;;;6.32;2.60;;;;;;;31.53;31.48;100725.56;20967572;28;20406;-79
2023/06/28 16:22:16;;;;;;;4.97;2.80;;;;;;;31.07;32.72;100734.31;20957751;28;20048;-79
2023/06/28 16:32:38;;;;;;;6.07;2.72;;;;;;;30.92;32.97;100737.22;20945078;28;20041;-79
2023/06/28 16:43:04;;;;;;;5.80;3.00;;;;;;;30.60;34.05;100733.97;20941705;28;20056;-80
2023/06/28 16:53:27;;;;;;;5.55;3.28;;;;;;;30.25;34.69;100736.31;20955003;28;20036;-78
2023/06/28 17:03:53;;;;;;;5.57;2.95;;;;;;;30.06;35.98;100734.78;20948596;28;20052;-76
2023/06/28 17:14:16;;;;;;;5.60;3.00;;;;;;;29.87;36.39;100741.50;20973675;28;20056;-76
2023/06/28 17:24:40;;;;;;;5.45;3.25;;;;;;;29.62;36.88;100740.38;20959539;28;20056;-77
2023/06/28 17:35:03;;;;;;;4.20;3.00;;;;;;;29.37;36.91;100745.63;20941456;28;20052;-75
2023/06/28 17:45:28;;;;;;;6.05;3.25;;;;;;;29.04;37.90;100754.00;20961070;28;20047;-77
2023/06/28 17:55:51;;;;;;;7.57;3.35;;;;;;;28.73;38.49;100763.09;20917426;28;20865;-77
2023/06/28 18:06:17;;;;;;;8.05;3.53;;;;;;;28.37;39.93;100774.28;20956795;28;20044;-76
2023/06/28 18:16:40;;;;;;;8.02;3.72;;;;;;;28.08;40.85;100775.06;20959492;28;20409;-78
2023/06/28 18:27:05;;;;;;;5.90;3.42;;;;;;;27.78;41.72;100785.78;20945342;28;20052;-77
2023/06/28 18:37:28;;;;;;;7.22;3.72;;;;;;;27.62;42.18;100785.75;20963979;28;20055;-79
2023/06/28 18:47:53;;;;;;;6.57;3.85;;;;;;;27.28;43.39;100789.38;20975537;28;20048;-80
2023/06/28 18:58:28;;;;;;;8.93;5.13;;;;;;;26.91;46.36;100798.53;20972396;28;20040;-78
2023/06/28 19:08:53;;;;;;;5.90;3.28;;;;;;;26.71;46.76;100819.47;20957923;28;20048;-77
2023/06/28 19:19:18;;;;;;;6.60;3.63;;;;;;;26.42;48.62;100827.19;20956717;28;20057;-76
2023/06/28 19:29:42;;;;;;;6.15;3.15;;;;;;;26.28;49.15;100818.84;20946761;28;20060;-76
2023/06/28 19:40:06;;;;;;;10.70;5.00;;;;;;;26.08;51.04;100829.72;20939650;28;20059;-76
2023/06/28 19:50:31;;;;;;;6.50;3.90;;;;;;;25.67;53.97;100837.91;20954645;28;20045;-77
2023/06/28 20:00:54;;;;;;;5.75;3.50;;;;;;;25.59;54.56;100831.13;20974332;28;20048;-79
2023/06/28 20:10:58;;;;;;;6.07;3.70;;;;;;;25.55;55.46;100834.88;21007446;28;20036;-77
2023/06/28 20:21:21;;;;;;;4.45;3.03;;;;;;;25.26;57.85;100833.47;20976713;28;20041;-78
2023/06/28 20:31:45;;;;;;;7.28;3.78;;;;;;;25.16;58.50;100835.69;20959220;28;20452;-77
2023/06/28 20:42:08;;;;;;;5.78;3.47;;;;;;;24.88;60.64;100832.38;20951755;28;20041;-78
2023/06/28 20:52:32;;;;;;;5.63;3.55;;;;;;;24.78;61.49;100831.00;20977488;28;20060;-79
2023/06/28 21:02:55;;;;;;;5.93;3.50;;;;;;;24.45;65.01;100831.47;20964765;28;20049;-79
2023/06/28 21:13:20;;;;;;;6.60;3.72;;;;;;;24.42;65.31;100836.97;21006393;28;20055;-79
2023/06/28 21:23:43;;;;;;;4.85;3.17;;;;;;;24.39;64.60;100845.22;21021950;28;20400;-78
2023/06/28 21:34:07;;;;;;;6.03;3.33;;;;;;;24.27;67.35;100848.41;21037591;28;20476;-79
2023/06/28 21:44:10;;;;;;;6.13;3.88;;;;;;;23.81;75.67;100852.84;21026678;28;20543;-79
2023/06/28 21:54:35;;;;;;;8.25;3.55;;;;;;;23.74;77.37;100845.91;21038805;28;20591;-79
2023/06/28 22:04:57;;;;;;;5.82;3.15;;;;;;;23.57;78.18;100837.53;20981660;28;20074;-79
2023/06/28 22:15:22;;;;;;;7.25;3.50;;;;;;;23.52;77.30;100828.75;20981817;28;20060;-79
2023/06/28 22:25:45;;;;;;;7.38;3.70;;;;;;;23.39;78.75;100840.88;20946243;28;20052;-79
2023/06/28 22:36:10;;;;;;;5.97;3.42;;;;;;;23.18;80.54;100841.63;20962745;28;20370;-79
2023/06/28 22:46:33;;;;;;;6.80;4.22;;;;;;;23.24;78.14;100836.91;21045973;28;20148;-79
2023/06/28 22:56:58;;;;;;;6.50;3.50;;;;;;;22.95;81.84;100816.41;21005295;28;20056;-79
2023/06/28 23:07:22;;;;;;;5.32;3.63;;;;;;;22.86;82.37;100815.81;21008627;28;20059;-79
2023/06/28 23:17:47;;;;;;;5.25;3.55;;;;;;;22.64;84.98;100810.28;20996094;28;20106;-79
2023/06/28 23:28:10;;;;;;;6.57;3.30;;;;;;;22.51;86.18;100814.28;20999406;28;20046;-79
2023/06/28 23:38:34;;;;;;;5.55;3.50;;;;;;;22.42;87.41;100819.97;20999031;28;20201;-78
2023/06/28 23:49:00;;;;;;;6.25;3.67;;;;;;;22.24;89.03;100789.16;21048673;28;20056;-78
2023/06/28 23:59:24;;;;;;;5.25;3.30;;;;;;;22.36;87.32;100790.56;20994091;28;20056;-79
